createdAt,value
2022-10-23T00:00:47.317Z,52.20
2022-10-23T00:03:17.663Z,56.97
2022-10-23T00:05:47.727Z,41.50
2022-10-23T00:08:17.856Z,51.17
2022-10-23T00:10:48.341Z,65.90
2022-10-23T00:13:18.488Z,38.63
2022-10-23T00:15:48.529Z,34.35
2022-10-23T00:18:19.134Z,34.08
2022-10-23T00:20:49.217Z,33.97
2022-10-23T00:23:19.509Z,25.10
2022-10-23T00:25:49.540Z,21.25
2022-10-23T00:28:19.687Z,34.55
2022-10-23T00:30:49.936Z,16.20
2022-10-23T00:33:20.348Z,16.67
2022-10-23T00:35:50.477Z,22.27
2022-10-23T00:38:20.587Z,28.95
2022-10-23T00:43:34.604Z,25.73
2022-10-23T00:46:04.924Z,19.30
2022-10-23T00:48:34.984Z,20.63
2022-10-23T00:51:05.156Z,17.33
2022-10-23T00:53:41.738Z,25.48
2022-10-23T00:56:12.161Z,28.50
2022-10-23T00:58:42.466Z,23.35
2022-10-23T01:01:19.796Z,29.35
2022-10-23T01:03:51.061Z,32.80
2022-10-23T01:06:33.780Z,29.13
2022-10-23T01:09:24.266Z,25.42
2022-10-23T01:12:03.494Z,27.45
2022-10-23T01:14:35.246Z,40.17
2022-10-23T01:17:24.032Z,29.63
2022-10-23T01:20:19.446Z,26.63
2022-10-23T01:22:54.127Z,23.17
2022-10-23T01:25:34.084Z,29.95
2022-10-23T01:28:05.482Z,29.85
2022-10-23T01:30:36.147Z,32.20
2022-10-23T01:33:10.630Z,30.65
2022-10-23T01:36:08.067Z,37.88
2022-10-23T01:38:41.727Z,26.38
2022-10-23T01:41:37.225Z,35.88
2022-10-23T01:44:11.263Z,31.60
2022-10-23T01:46:42.022Z,32.78
2022-10-23T01:49:13.189Z,33.45
2022-10-23T01:51:45.331Z,45.70
2022-10-23T01:54:16.103Z,30.58
2022-10-23T01:56:46.975Z,26.45
2022-10-23T01:59:18.656Z,25.40
2022-10-23T02:01:49.266Z,22.38
2022-10-23T02:04:24.313Z,23.55
2022-10-23T02:06:57.309Z,18.95
2022-10-23T02:09:27.403Z,23.60
2022-10-23T02:12:00.539Z,23.48
2022-10-23T02:14:33.836Z,30.08
2022-10-23T02:17:11.687Z,22.27
2022-10-23T02:19:42.589Z,18.70
2022-10-23T02:22:15.121Z,19.95
2022-10-23T02:24:51.966Z,18.23
2022-10-23T02:29:56.314Z,19.33
2022-10-23T02:32:27.138Z,23.33
2022-10-23T02:34:57.457Z,24.85
2022-10-23T02:37:27.851Z,28.83
2022-10-23T02:39:58.390Z,19.05
2022-10-23T02:42:53.308Z,27.65
2022-10-23T02:48:19.426Z,23.30
2022-10-23T02:50:54.943Z,32.20
2022-10-23T02:53:28.333Z,25.05
2022-10-23T02:56:06.233Z,21.13
2022-10-23T02:58:40.950Z,22.50
2022-10-23T03:01:13.091Z,21.02
2022-10-23T03:03:51.524Z,25.80
2022-10-23T03:06:21.757Z,29.15
2022-10-23T03:08:57.686Z,23.60
2022-10-23T03:11:28.836Z,17.83
2022-10-23T03:13:58.962Z,21.05
2022-10-23T03:16:29.469Z,30.88
2022-10-23T03:19:00.429Z,34.50
2022-10-23T03:21:32.006Z,22.33
2022-10-23T03:24:02.186Z,22.15
2022-10-23T03:26:38.610Z,30.33
2022-10-23T03:29:08.727Z,18.90
2022-10-23T03:31:44.664Z,19.90
2022-10-23T03:34:16.146Z,24.42
2022-10-23T03:36:47.019Z,19.00
2022-10-23T03:39:17.760Z,21.23
2022-10-23T03:41:49.077Z,22.45
2022-10-23T03:44:20.587Z,26.98
2022-10-23T03:46:51.105Z,27.58
2022-10-23T03:49:21.217Z,27.73
2022-10-23T03:51:53.967Z,19.58
2022-10-23T03:54:25.083Z,21.80
2022-10-23T03:56:57.480Z,28.15
2022-10-23T03:59:29.556Z,29.85
2022-10-23T04:02:01.589Z,27.08
2022-10-23T04:04:32.145Z,45.38
2022-10-23T04:07:03.049Z,36.80
2022-10-23T04:09:33.301Z,59.13
2022-10-23T04:12:03.414Z,78.72
2022-10-23T04:14:33.679Z,84.97
2022-10-23T04:17:03.825Z,78.82
2022-10-23T04:19:33.932Z,84.00
2022-10-23T04:22:04.056Z,98.82
2022-10-23T04:24:34.133Z,81.28
2022-10-23T04:27:05.107Z,91.55
2022-10-23T04:29:35.637Z,131.00
2022-10-23T04:32:05.701Z,120.40
2022-10-23T04:34:35.870Z,117.05
2022-10-23T04:37:06.931Z,102.95
2022-10-23T04:39:37.250Z,76.32
2022-10-23T04:42:07.436Z,79.43
2022-10-23T04:44:38.190Z,88.82
2022-10-23T04:47:08.794Z,105.70
2022-10-23T04:49:48.587Z,93.53
2022-10-23T04:52:38.416Z,103.93
2022-10-23T04:55:29.018Z,110.88
2022-10-23T04:58:13.801Z,99.45
2022-10-23T05:00:44.388Z,98.15
2022-10-23T05:03:16.932Z,81.90
2022-10-23T05:05:47.624Z,54.80
2022-10-23T05:08:31.342Z,69.57
2022-10-23T05:11:21.677Z,65.18
2022-10-23T05:13:53.348Z,43.33
2022-10-23T05:16:31.198Z,59.20
2022-10-23T05:19:01.383Z,112.05
2022-10-23T05:21:32.026Z,78.40
2022-10-23T05:24:03.159Z,97.47
2022-10-23T05:26:33.441Z,78.18
2022-10-23T05:29:09.017Z,69.97
2022-10-23T05:31:39.314Z,43.45
2022-10-23T05:34:14.981Z,64.57
2022-10-23T05:36:47.501Z,45.63
2022-10-23T05:39:18.242Z,44.10
2022-10-23T05:41:49.368Z,37.10
2022-10-23T05:44:24.043Z,37.77
2022-10-23T05:47:12.578Z,26.08
2022-10-23T05:49:48.569Z,20.05
2022-10-23T05:52:36.802Z,33.28
2022-10-23T05:55:24.920Z,17.80
2022-10-23T05:58:30.030Z,63.10
2022-10-23T06:01:08.054Z,49.40
2022-10-23T06:03:56.092Z,31.80
2022-10-23T06:06:33.391Z,28.27
2022-10-23T06:09:03.694Z,16.30
2022-10-23T06:11:38.596Z,13.15
2022-10-23T06:14:14.242Z,19.27
2022-10-23T06:16:44.542Z,14.43
2022-10-23T06:19:15.260Z,25.20
2022-10-23T06:21:46.442Z,20.33
2022-10-23T06:24:17.859Z,52.40
2022-10-23T06:26:55.168Z,21.20
2022-10-23T06:29:37.832Z,12.68
2022-10-23T06:32:08.063Z,35.75
2022-10-23T06:34:38.646Z,20.55
2022-10-23T06:37:10.745Z,14.35
2022-10-23T06:39:47.909Z,36.05
2022-10-23T06:42:21.839Z,31.75
2022-10-23T06:45:12.059Z,15.60
2022-10-23T06:47:42.286Z,8.05
2022-10-23T06:50:15.951Z,19.33
2022-10-23T06:52:48.057Z,24.90
2022-10-23T06:55:20.967Z,8.63
2022-10-23T06:57:51.303Z,16.77
2022-10-23T07:00:22.849Z,17.35
2022-10-23T07:02:54.673Z,26.17
2022-10-23T07:05:25.791Z,23.02
2022-10-23T07:07:56.404Z,8.38
2022-10-23T10:30:04.343Z,55.55
2022-10-23T10:32:38.641Z,52.92
2022-10-23T10:38:31.332Z,66.78
2022-10-23T10:41:16.769Z,63.88
2022-10-23T10:44:05.531Z,80.20
2022-10-23T10:47:00.268Z,122.20
2022-10-23T10:49:51.301Z,124.15
2022-10-23T10:52:43.236Z,141.95
2022-10-23T10:55:19.409Z,199.38
2022-10-23T10:57:51.163Z,218.88
2022-10-23T11:00:22.297Z,214.52
2022-10-23T11:03:14.153Z,173.80
2022-10-23T11:05:45.484Z,183.90
2022-10-23T11:08:15.811Z,173.57
2022-10-23T11:10:50.011Z,133.48
2022-10-23T11:13:29.995Z,96.82
2022-10-23T11:16:02.142Z,89.28
2022-10-23T11:18:33.402Z,100.45
2022-10-23T11:21:09.628Z,96.82
2022-10-23T11:23:42.926Z,92.20
2022-10-23T11:26:16.226Z,97.28
2022-10-23T11:29:01.542Z,94.38
2022-10-23T11:31:31.841Z,105.60
2022-10-23T11:34:28.387Z,115.05
2022-10-23T11:36:59.275Z,107.63
2022-10-23T11:39:33.405Z,79.90
2022-10-23T11:42:08.213Z,102.90
2022-10-23T11:44:43.084Z,102.75
2022-10-23T11:47:40.414Z,98.75
2022-10-23T11:50:10.956Z,117.47
2022-10-23T11:52:50.498Z,103.15
2022-10-23T11:55:22.468Z,105.15
2022-10-23T11:58:11.483Z,102.90
2022-10-23T12:00:42.480Z,106.07
2022-10-23T12:03:20.796Z,105.90
2022-10-23T12:05:57.389Z,103.20
2022-10-23T12:08:28.550Z,97.25
2022-10-23T12:10:58.775Z,115.05
2022-10-23T12:13:46.315Z,115.82
2022-10-23T12:16:16.451Z,91.00
2022-10-23T12:18:50.355Z,92.13
2022-10-23T12:21:29.974Z,97.07
2022-10-23T12:24:29.449Z,98.00
2022-10-23T12:27:11.785Z,97.07
2022-10-23T12:29:51.353Z,103.63
2022-10-23T12:32:33.684Z,105.80
2022-10-23T12:35:16.071Z,92.25
2022-10-23T12:38:04.620Z,105.10
2022-10-23T12:40:35.142Z,112.35
2022-10-23T12:43:05.184Z,97.53
2022-10-23T12:45:38.184Z,99.13
2022-10-23T12:48:08.413Z,102.72
2022-10-23T12:50:38.638Z,100.13
2022-10-23T12:53:09.538Z,102.90
2022-10-23T12:55:49.020Z,118.25
2022-10-23T12:58:26.584Z,111.22
2022-10-23T13:01:00.973Z,94.95
2022-10-23T13:03:31.845Z,106.00
2022-10-23T13:06:11.157Z,89.78
2022-10-23T13:08:45.511Z,94.13
2022-10-23T13:11:35.678Z,130.80
2022-10-23T13:14:15.487Z,89.63
2022-10-23T13:16:45.795Z,75.10
2022-10-23T13:19:29.294Z,78.70
2022-10-23T13:22:00.236Z,81.38
2022-10-23T13:24:30.908Z,80.03
2022-10-23T13:27:01.378Z,84.20
2022-10-23T13:29:32.163Z,80.15
2022-10-23T13:32:15.224Z,89.43
2022-10-23T13:35:03.680Z,100.55
2022-10-23T13:37:34.845Z,79.23
2022-10-23T13:40:12.336Z,101.28
2022-10-23T13:42:42.982Z,94.47
2022-10-23T13:45:15.507Z,110.28
2022-10-23T13:47:46.677Z,108.63
2022-10-23T13:50:16.986Z,128.70
2022-10-23T13:52:47.054Z,127.75
2022-10-23T13:55:20.188Z,117.38
2022-10-23T13:57:51.294Z,132.13
2022-10-23T14:00:21.496Z,120.80
2022-10-23T14:02:51.653Z,140.05
2022-10-23T14:05:21.841Z,127.38
2022-10-23T14:07:52.359Z,125.63
2022-10-23T14:10:25.655Z,133.55
2022-10-23T14:12:58.329Z,103.30
2022-10-23T14:15:30.530Z,113.10
2022-10-23T14:18:04.553Z,122.07
2022-10-23T14:20:37.571Z,103.97
2022-10-23T14:23:07.644Z,104.20
2022-10-23T14:25:38.012Z,118.72
2022-10-23T14:28:08.740Z,104.70
2022-10-23T14:30:39.314Z,98.82
2022-10-23T14:33:09.351Z,101.63
2022-10-23T14:35:44.415Z,104.10
2022-10-23T14:38:14.745Z,109.20
2022-10-23T14:40:44.843Z,105.07
2022-10-23T14:43:14.953Z,109.18
2022-10-23T14:45:45.166Z,101.63
2022-10-23T14:48:15.484Z,111.78
2022-10-23T14:50:46.576Z,118.40
2022-10-23T14:53:16.945Z,109.72
2022-10-23T14:55:47.480Z,114.72
2022-10-23T14:58:18.190Z,104.90
2022-10-23T15:00:48.667Z,107.93
2022-10-23T15:03:19.411Z,101.95
2022-10-23T15:05:49.948Z,114.22
2022-10-23T15:08:20.139Z,133.07
2022-10-23T15:10:50.469Z,144.20
2022-10-23T15:13:20.564Z,147.68
2022-10-23T15:15:50.691Z,145.30
2022-10-23T15:18:22.682Z,160.20
2022-10-23T15:20:56.086Z,150.65
2022-10-23T15:23:26.484Z,180.35
2022-10-23T15:26:00.267Z,198.27
2022-10-23T15:28:31.180Z,184.35
2022-10-23T15:31:01.791Z,180.73
2022-10-23T15:33:32.030Z,187.65
2022-10-23T15:36:02.638Z,170.20
2022-10-23T15:38:32.816Z,205.35
2022-10-23T15:41:03.011Z,221.43
2022-10-23T15:43:33.017Z,197.07
2022-10-23T15:46:03.136Z,165.10
2022-10-23T15:48:33.291Z,129.48
2022-10-23T15:51:03.540Z,136.55
2022-10-23T15:53:33.605Z,130.05
2022-10-23T15:56:07.027Z,138.27
2022-10-23T15:58:37.698Z,132.88
2022-10-23T16:01:08.700Z,155.95
2022-10-23T16:03:39.302Z,147.75
2022-10-23T16:06:14.877Z,136.82
2022-10-23T16:08:45.099Z,146.50
2022-10-23T16:11:22.119Z,153.52
2022-10-23T16:13:52.655Z,155.18
2022-10-23T16:16:22.768Z,145.82
2022-10-23T16:18:52.917Z,153.65
2022-10-23T16:21:27.624Z,151.75
2022-10-23T16:23:58.704Z,159.10
2022-10-23T16:26:29.427Z,163.55
2022-10-23T16:29:00.814Z,151.13
2022-10-23T16:31:31.197Z,166.57
2022-10-23T16:34:01.923Z,179.25
2022-10-23T16:36:32.471Z,159.57
2022-10-23T16:39:21.672Z,128.60
2022-10-23T16:42:10.801Z,123.88
2022-10-23T16:45:02.910Z,87.72
2022-10-23T16:47:33.747Z,80.43
2022-10-23T16:50:04.068Z,69.00
2022-10-23T16:52:35.653Z,101.03
2022-10-23T16:55:05.989Z,149.55
2022-10-23T16:57:37.361Z,152.98
2022-10-23T17:00:08.055Z,131.43
2022-10-23T17:02:39.216Z,129.10
2022-10-23T17:05:09.946Z,125.30
2022-10-23T17:07:40.559Z,142.85
2022-10-23T17:10:10.934Z,133.45
2022-10-23T17:12:42.476Z,128.50
2022-10-23T17:15:13.399Z,137.40
2022-10-23T17:17:44.188Z,150.70
2022-10-23T17:20:14.907Z,135.57
2022-10-23T17:22:45.031Z,160.07
2022-10-23T17:25:15.207Z,151.50
2022-10-23T17:27:45.676Z,142.15
2022-10-23T17:30:16.459Z,139.85
2022-10-23T17:32:46.932Z,121.80
2022-10-23T17:35:17.646Z,133.05
2022-10-23T17:37:47.622Z,139.63
2022-10-23T17:40:19.455Z,115.85
2022-10-23T17:42:51.937Z,126.82
2022-10-23T17:45:22.076Z,129.02
2022-10-23T17:47:52.162Z,107.78
2022-10-23T17:50:22.299Z,100.03
2022-10-23T17:52:52.192Z,90.70
2022-10-23T17:55:22.181Z,68.82
2022-10-23T17:57:52.181Z,57.45
2022-10-23T18:00:22.278Z,59.60
2022-10-23T18:02:52.372Z,43.03
2022-10-23T18:05:22.309Z,44.30
2022-10-23T18:07:54.736Z,39.47
2022-10-23T18:10:24.806Z,25.52
2022-10-23T18:12:54.714Z,37.03
2022-10-23T18:15:24.631Z,42.35
2022-10-23T18:17:54.619Z,33.08
2022-10-23T18:20:24.619Z,58.22
2022-10-23T18:22:54.743Z,44.53
2022-10-23T18:25:24.843Z,36.47
2022-10-23T18:27:57.132Z,36.92
2022-10-23T18:30:29.350Z,30.35
2022-10-23T18:32:59.435Z,30.33
2022-10-23T18:35:29.504Z,50.70
2022-10-23T18:37:59.588Z,61.13
2022-10-23T18:40:29.550Z,65.07
2022-10-23T18:43:02.721Z,58.75
2022-10-23T18:45:33.296Z,52.90
2022-10-23T18:48:03.468Z,67.65
2022-10-23T18:50:37.443Z,71.18
2022-10-23T18:53:07.792Z,83.75
2022-10-23T18:55:37.855Z,68.13
2022-10-23T18:58:07.914Z,74.70
2022-10-23T19:00:38.041Z,74.63
2022-10-23T19:03:08.119Z,49.60
2022-10-23T19:05:38.119Z,66.20
2022-10-23T19:08:08.299Z,66.30
2022-10-23T19:10:38.328Z,61.95
2022-10-23T19:13:08.363Z,65.88
2022-10-23T19:15:38.293Z,67.30
2022-10-23T19:18:08.412Z,90.25
2022-10-23T19:20:38.483Z,82.10
2022-10-23T19:23:09.936Z,98.97
2022-10-23T19:25:41.871Z,125.93
2022-10-23T19:28:11.804Z,73.90
2022-10-23T19:30:41.840Z,69.18
2022-10-23T19:33:11.891Z,60.20
2022-10-23T19:35:41.890Z,52.22
2022-10-23T19:38:11.817Z,52.58
2022-10-23T19:40:41.889Z,64.32
2022-10-23T19:43:11.917Z,58.65
2022-10-23T19:45:41.886Z,71.88
2022-10-23T19:48:11.853Z,55.30
2022-10-23T19:50:43.900Z,69.85
2022-10-23T19:53:14.360Z,56.00
2022-10-23T19:55:44.356Z,58.60
2022-10-23T19:58:14.257Z,60.28
2022-10-23T20:00:44.467Z,61.10
2022-10-23T20:03:14.476Z,55.55
2022-10-23T20:05:46.963Z,50.08
2022-10-23T20:08:17.277Z,40.67
2022-10-23T20:10:49.100Z,44.30
2022-10-23T20:13:20.436Z,33.58
2022-10-23T20:15:50.667Z,32.22
2022-10-23T20:18:20.636Z,32.35
2022-10-23T20:20:50.639Z,34.90
2022-10-23T20:23:20.636Z,43.60
2022-10-23T20:25:50.859Z,40.40
2022-10-23T20:28:22.794Z,35.72
2022-10-23T20:30:52.745Z,38.65
2022-10-23T20:33:22.785Z,40.65
2022-10-23T20:38:24.027Z,42.05
2022-10-23T20:40:54.049Z,32.20
2022-10-23T20:43:24.021Z,39.53
2022-10-23T20:45:54.644Z,34.63
2022-10-23T20:48:25.041Z,23.08
2022-10-23T20:50:55.052Z,21.88
2022-10-23T20:53:25.046Z,30.23
2022-10-23T20:55:55.019Z,29.42
2022-10-23T20:58:26.715Z,40.67
2022-10-23T21:00:59.131Z,44.97
2022-10-23T21:03:29.134Z,39.92
2022-10-23T21:05:59.176Z,31.50
2022-10-23T21:08:29.120Z,27.55
2022-10-23T21:10:59.099Z,32.03
2022-10-23T21:13:29.408Z,21.92
2022-10-23T21:15:59.981Z,28.73
2022-10-23T21:18:45.045Z,28.90
2022-10-23T21:21:20.455Z,35.33
2022-10-23T21:23:50.972Z,15.07
2022-10-23T21:26:21.749Z,22.08
2022-10-23T21:28:56.125Z,13.35
2022-10-23T21:31:36.974Z,13.82
2022-10-23T21:34:07.104Z,23.15
2022-10-23T21:36:48.495Z,25.20
2022-10-23T21:39:27.367Z,11.52
2022-10-23T21:41:57.521Z,16.23
2022-10-23T21:44:27.497Z,19.20
2022-10-23T21:46:57.610Z,15.30
2022-10-23T21:49:27.509Z,19.75
2022-10-23T21:51:57.556Z,18.42
2022-10-23T21:54:27.612Z,14.82
2022-10-23T21:56:57.655Z,27.10
2022-10-23T21:59:30.268Z,30.10
2022-10-23T22:02:01.794Z,28.65
2022-10-23T22:04:31.972Z,27.88
2022-10-23T22:07:03.844Z,28.30
2022-10-23T22:09:34.136Z,25.83
2022-10-23T22:12:04.586Z,22.60
2022-10-23T22:14:34.625Z,24.30
2022-10-23T22:17:05.255Z,20.98
2022-10-23T22:19:35.232Z,21.35
2022-10-23T22:22:05.302Z,13.13
2022-10-23T22:24:35.312Z,19.90
2022-10-23T22:27:05.288Z,15.88
2022-10-23T22:29:35.307Z,30.00
2022-10-23T22:32:05.389Z,18.80
2022-10-23T22:34:52.282Z,19.70
2022-10-23T22:37:22.864Z,20.50
2022-10-23T22:39:53.501Z,13.98
2022-10-23T22:42:24.308Z,17.80
2022-10-23T22:44:54.636Z,9.98
2022-10-23T22:47:25.125Z,11.85
2022-10-23T22:49:55.483Z,17.15
2022-10-23T22:52:25.923Z,16.08
2022-10-23T22:54:56.248Z,20.88
2022-10-23T22:59:57.023Z,24.20
2022-10-23T23:02:27.517Z,24.52
2022-10-23T23:04:57.781Z,23.55
2022-10-23T23:07:27.846Z,38.03
2022-10-23T23:09:57.842Z,26.17
2022-10-23T23:12:27.953Z,17.88
2022-10-23T23:15:00.173Z,12.32
2022-10-23T23:17:30.438Z,27.52
2022-10-23T23:20:00.370Z,24.30
2022-10-23T23:22:30.992Z,24.75
2022-10-23T23:25:01.192Z,22.52
2022-10-23T23:27:31.273Z,29.13
2022-10-23T23:30:01.180Z,18.92
2022-10-23T23:32:31.440Z,24.27
2022-10-23T23:35:01.793Z,22.08
2022-10-23T23:37:31.731Z,19.00
2022-10-23T23:40:01.733Z,23.85
2022-10-23T23:42:32.462Z,20.05
2022-10-23T23:45:13.425Z,25.88
2022-10-23T23:47:44.858Z,17.48
2022-10-23T23:50:15.110Z,25.48
2022-10-23T23:52:45.720Z,32.28
2022-10-23T23:55:15.766Z,23.05
2022-10-23T23:57:46.463Z,30.42
